createdAt,value
2019-05-21T00:00:38.203Z,20.20
2019-05-21T00:03:10.541Z,20.20
2019-05-21T00:05:42.989Z,20.20
2019-05-21T00:08:15.476Z,20.20
2019-05-21T00:10:48.033Z,20.20
2019-05-21T00:13:20.376Z,20.20
2019-05-21T00:15:52.850Z,20.20
2019-05-21T00:18:25.259Z,20.20
2019-05-21T00:20:57.740Z,20.20
2019-05-21T00:23:30.123Z,20.20
2019-05-21T00:26:02.654Z,20.20
2019-05-21T00:28:39.789Z,20.20
2019-05-21T00:32:06.248Z,20.20
2019-05-21T00:35:49.116Z,20.20
2019-05-21T00:39:15.699Z,20.20
2019-05-21T00:42:03.194Z,20.00
2019-05-21T00:44:39.385Z,19.90
2019-05-21T00:47:12.651Z,19.90
2019-05-21T00:49:45.068Z,19.90
2019-05-21T00:52:17.510Z,19.90
2019-05-21T00:54:50.027Z,19.90
2019-05-21T00:57:22.499Z,19.90
2019-05-21T00:59:54.914Z,20.00
2019-05-21T01:02:27.349Z,20.00
2019-05-21T01:05:01.446Z,20.00
2019-05-21T01:07:33.972Z,20.00
2019-05-21T01:10:06.653Z,20.00
2019-05-21T01:12:39.098Z,20.00
2019-05-21T01:15:11.589Z,20.00
2019-05-21T01:17:44.017Z,20.00
2019-05-21T01:20:16.476Z,20.10
2019-05-21T01:22:48.899Z,20.10
2019-05-21T01:25:21.303Z,20.10
2019-05-21T01:27:53.737Z,20.10
2019-05-21T01:30:26.151Z,20.10
2019-05-21T01:32:58.580Z,20.10
2019-05-21T01:35:30.988Z,20.10
2019-05-21T01:38:03.428Z,20.10
2019-05-21T01:40:35.830Z,20.10
2019-05-21T01:43:08.262Z,20.10
2019-05-21T01:45:40.680Z,20.10
2019-05-21T01:48:13.103Z,20.10
2019-05-21T01:50:45.448Z,20.10
2019-05-21T01:53:17.868Z,20.10
2019-05-21T01:55:51.348Z,20.10
2019-05-21T01:58:23.867Z,20.10
2019-05-21T02:00:56.288Z,20.10
2019-05-21T02:03:28.715Z,20.10
2019-05-21T02:06:01.136Z,20.10
2019-05-21T02:08:34.533Z,20.10
2019-05-21T02:11:06.938Z,20.10
2019-05-21T02:13:39.364Z,20.10
2019-05-21T02:16:11.775Z,20.10
2019-05-21T02:18:44.205Z,20.10
2019-05-21T02:21:16.637Z,20.10
2019-05-21T02:23:49.077Z,20.10
2019-05-21T02:26:21.494Z,20.10
2019-05-21T02:28:53.850Z,20.10
2019-05-21T02:31:26.364Z,20.10
2019-05-21T02:33:58.730Z,20.10
2019-05-21T02:36:31.155Z,20.10
2019-05-21T02:39:05.692Z,20.10
2019-05-21T02:41:38.116Z,20.10
2019-05-21T02:44:10.541Z,20.10
2019-05-21T02:46:42.944Z,20.10
2019-05-21T02:49:16.437Z,20.10
2019-05-21T02:51:48.850Z,20.10
2019-05-21T02:54:37.543Z,20.10
2019-05-21T02:56:55.393Z,20.00
2019-05-21T02:59:27.825Z,20.10
2019-05-21T03:02:18.288Z,20.00
2019-05-21T03:04:50.770Z,20.00
2019-05-21T03:07:25.529Z,20.00
2019-05-21T03:09:57.319Z,20.00
2019-05-21T03:12:29.735Z,20.00
2019-05-21T03:15:02.181Z,20.00
2019-05-21T03:17:34.595Z,20.00
2019-05-21T03:20:07.131Z,20.00
2019-05-21T03:22:39.568Z,20.00
2019-05-21T03:25:12.312Z,20.00
2019-05-21T03:27:44.715Z,20.00
2019-05-21T03:30:17.189Z,20.00
2019-05-21T03:32:49.646Z,20.00
2019-05-21T03:35:22.072Z,20.00
2019-05-21T03:37:54.491Z,20.00
2019-05-21T03:40:26.929Z,20.00
2019-05-21T03:42:59.335Z,20.00
2019-05-21T03:45:31.771Z,20.00
2019-05-21T03:48:04.186Z,19.90
2019-05-21T03:50:36.559Z,19.90
2019-05-21T03:53:08.982Z,19.90
2019-05-21T03:55:41.461Z,19.90
2019-05-21T03:58:14.942Z,19.90
2019-05-21T04:00:47.462Z,19.90
2019-05-21T04:03:19.903Z,19.90
2019-05-21T04:05:52.315Z,19.90
2019-05-21T04:08:24.756Z,19.90
2019-05-21T04:10:57.130Z,19.90
2019-05-21T04:13:29.612Z,19.90
2019-05-21T04:16:19.829Z,19.90
2019-05-21T04:19:14.266Z,19.90
2019-05-21T04:21:46.698Z,19.90
2019-05-21T04:24:19.454Z,19.80
2019-05-21T04:26:51.915Z,19.80
2019-05-21T04:29:24.321Z,19.80
2019-05-21T04:31:56.755Z,19.80
2019-05-21T04:34:29.185Z,19.80
2019-05-21T04:37:11.018Z,19.80
2019-05-21T04:39:35.710Z,19.80
2019-05-21T04:42:08.261Z,19.80
2019-05-21T04:44:40.656Z,19.80
2019-05-21T04:47:13.004Z,19.80
2019-05-21T04:49:45.415Z,19.80
2019-05-21T04:52:17.830Z,19.80
2019-05-21T04:54:50.232Z,19.80
2019-05-21T04:57:22.663Z,19.80
2019-05-21T04:59:55.059Z,19.80
2019-05-21T05:02:27.485Z,19.80
2019-05-21T05:04:59.893Z,19.80
2019-05-21T05:07:32.316Z,19.80
2019-05-21T05:10:05.298Z,19.80
2019-05-21T05:12:37.648Z,19.80
2019-05-21T05:17:30.912Z,19.80
2019-05-21T05:20:03.365Z,19.80
2019-05-21T05:22:35.783Z,19.80
2019-05-21T05:25:09.276Z,19.80
2019-05-21T05:27:52.044Z,19.80
2019-05-21T05:30:27.788Z,19.80
2019-05-21T05:33:00.202Z,19.80
2019-05-21T05:35:32.620Z,19.80
2019-05-21T05:38:05.025Z,19.80
2019-05-21T05:40:37.482Z,19.80
2019-05-21T05:43:10.933Z,19.80
2019-05-21T05:45:43.352Z,19.80
2019-05-21T05:48:16.369Z,19.80
2019-05-21T05:50:51.546Z,19.80
2019-05-21T05:53:24.322Z,19.80
2019-05-21T05:55:56.750Z,19.80
2019-05-21T05:58:29.182Z,19.80
2019-05-21T06:01:01.652Z,19.80
2019-05-21T06:03:34.224Z,19.80
2019-05-21T06:06:06.625Z,19.80
2019-05-21T06:08:39.048Z,19.80
2019-05-21T06:11:11.518Z,19.80
2019-05-21T06:13:43.949Z,19.80
2019-05-21T06:16:16.358Z,19.70
2019-05-21T06:18:48.803Z,19.70
2019-05-21T06:21:21.221Z,19.70
2019-05-21T06:23:53.687Z,19.70
2019-05-21T06:26:26.111Z,19.70
2019-05-21T06:28:58.598Z,19.70
2019-05-21T06:31:33.756Z,19.70
2019-05-21T06:34:06.497Z,19.70
2019-05-21T06:36:38.915Z,19.70
2019-05-21T06:39:11.328Z,19.70
2019-05-21T06:41:43.768Z,19.70
2019-05-21T06:44:18.329Z,19.70
2019-05-21T06:46:50.730Z,19.70
2019-05-21T06:49:23.159Z,19.70
2019-05-21T06:51:55.558Z,19.70
2019-05-21T06:54:27.971Z,19.70
2019-05-21T06:57:00.397Z,19.70
2019-05-21T06:59:32.812Z,19.70
2019-05-21T07:02:05.223Z,19.70
2019-05-21T07:04:40.693Z,19.70
2019-05-21T07:07:13.100Z,19.70
2019-05-21T07:09:46.602Z,19.70
2019-05-21T07:12:18.995Z,19.70
2019-05-21T07:14:51.416Z,19.70
2019-05-21T07:17:23.819Z,19.70
2019-05-21T07:19:56.273Z,19.70
2019-05-21T07:22:28.730Z,19.70
2019-05-21T07:25:02.125Z,19.70
2019-05-21T07:27:34.600Z,19.70
2019-05-21T07:30:08.677Z,19.70
2019-05-21T07:32:41.281Z,19.70
2019-05-21T07:35:13.718Z,19.70
2019-05-21T07:37:46.129Z,19.70
2019-05-21T07:40:19.259Z,19.70
2019-05-21T07:42:51.653Z,19.70
2019-05-21T07:45:24.090Z,19.70
2019-05-21T07:47:56.502Z,19.70
2019-05-21T07:50:28.926Z,19.70
2019-05-21T07:53:01.324Z,19.70
2019-05-21T07:55:33.675Z,19.70
2019-05-21T07:58:06.075Z,19.70
2019-05-21T08:00:38.503Z,19.70
2019-05-21T08:03:10.902Z,19.70
2019-05-21T08:05:43.326Z,19.70
2019-05-21T08:08:15.720Z,19.70
2019-05-21T08:10:48.139Z,19.70
2019-05-21T08:13:20.485Z,19.70
2019-05-21T08:15:52.924Z,19.70
2019-05-21T08:18:25.363Z,19.70
2019-05-21T08:20:57.842Z,19.70
2019-05-21T08:23:30.237Z,19.70
2019-05-21T08:26:02.686Z,19.70
2019-05-21T08:28:35.091Z,19.70
2019-05-21T08:31:07.515Z,19.70
2019-05-21T08:33:39.968Z,19.70
2019-05-21T08:36:12.393Z,19.70
2019-05-21T08:38:44.718Z,19.70
2019-05-21T08:41:17.144Z,19.70
2019-05-21T08:43:49.556Z,19.70
2019-05-21T08:46:21.977Z,19.70
2019-05-21T08:48:54.376Z,19.70
2019-05-21T08:51:26.806Z,19.70
2019-05-21T08:53:59.265Z,19.70
2019-05-21T08:56:31.696Z,19.70
2019-05-21T08:59:04.111Z,19.70
2019-05-21T09:01:36.457Z,19.70
2019-05-21T09:04:08.852Z,19.70
2019-05-21T09:06:41.275Z,19.70
2019-05-21T09:09:13.681Z,19.70
2019-05-21T09:11:46.117Z,19.70
2019-05-21T09:14:18.506Z,19.70
2019-05-21T09:16:50.934Z,19.70
2019-05-21T09:19:23.365Z,19.70
2019-05-21T09:21:55.815Z,19.70
2019-05-21T09:24:28.222Z,19.70
2019-05-21T09:27:00.655Z,19.70
2019-05-21T09:29:33.059Z,19.70
2019-05-21T09:32:05.415Z,19.70
2019-05-21T09:34:48.154Z,19.70
2019-05-21T09:37:19.706Z,19.70
2019-05-21T09:39:45.997Z,19.70
2019-05-21T09:42:18.450Z,19.70
2019-05-21T09:44:50.894Z,19.70
2019-05-21T09:47:23.364Z,19.70
2019-05-21T09:49:55.855Z,19.70
2019-05-21T09:52:28.306Z,19.70
2019-05-21T09:55:00.785Z,19.70
2019-05-21T09:57:39.293Z,19.70
2019-05-21T10:00:30.049Z,19.70
2019-05-21T10:03:04.558Z,19.70
2019-05-21T10:05:36.957Z,19.60
2019-05-21T10:08:09.455Z,19.60
2019-05-21T10:10:41.854Z,19.60
2019-05-21T10:13:14.303Z,19.60
2019-05-21T10:15:46.801Z,19.60
2019-05-21T10:18:19.322Z,19.60
2019-05-21T10:20:51.744Z,19.70
2019-05-21T10:23:24.159Z,19.70
2019-05-21T10:25:56.651Z,19.70
2019-05-21T10:28:29.074Z,19.70
2019-05-21T10:31:01.472Z,19.70
2019-05-21T10:33:34.855Z,19.70
2019-05-21T10:36:07.353Z,19.70
2019-05-21T10:38:39.785Z,19.70
2019-05-21T10:41:12.213Z,19.80
2019-05-21T10:43:44.626Z,19.70
2019-05-21T10:46:17.043Z,19.80
2019-05-21T10:48:49.569Z,19.80
2019-05-21T10:51:22.066Z,19.80
2019-05-21T10:53:54.485Z,19.80
2019-05-21T10:56:26.916Z,19.80
2019-05-21T10:58:59.381Z,19.80
2019-05-21T11:01:46.111Z,19.80
2019-05-21T11:04:41.655Z,19.80
2019-05-21T11:07:15.471Z,19.80
2019-05-21T11:09:47.897Z,19.70
2019-05-21T11:12:20.320Z,19.80
2019-05-21T11:14:52.726Z,19.80
2019-05-21T11:17:25.135Z,19.70
2019-05-21T11:19:57.673Z,19.70
2019-05-21T11:22:30.098Z,19.80
2019-05-21T11:25:02.523Z,19.70
2019-05-21T11:27:34.982Z,19.70
2019-05-21T11:30:07.813Z,19.70
2019-05-21T11:32:40.405Z,19.70
2019-05-21T11:35:12.943Z,19.80
2019-05-21T11:37:47.862Z,19.80
2019-05-21T11:40:19.617Z,19.70
2019-05-21T11:42:53.119Z,19.80
2019-05-21T11:45:32.100Z,19.80
2019-05-21T11:48:01.007Z,19.80
2019-05-21T11:50:33.435Z,19.80
2019-05-21T11:53:05.831Z,19.80
2019-05-21T11:55:38.257Z,19.80
2019-05-21T11:58:10.765Z,19.80
2019-05-21T12:00:43.182Z,19.80
2019-05-21T12:03:15.646Z,19.80
2019-05-21T12:05:48.080Z,19.80
2019-05-21T12:08:20.468Z,19.80
2019-05-21T12:10:52.885Z,19.80
2019-05-21T12:13:25.374Z,19.80
2019-05-21T12:15:57.813Z,19.80
2019-05-21T12:18:30.206Z,19.80
2019-05-21T12:21:02.650Z,19.80
2019-05-21T12:23:35.169Z,19.80
2019-05-21T12:26:07.573Z,19.80
2019-05-21T12:28:39.982Z,19.70
2019-05-21T12:31:12.405Z,19.70
2019-05-21T12:33:44.807Z,19.70
2019-05-21T12:36:17.230Z,19.70
2019-05-21T12:38:49.622Z,19.70
2019-05-21T12:41:22.052Z,19.70
2019-05-21T12:43:54.453Z,19.80
2019-05-21T12:46:26.875Z,19.70
2019-05-21T12:48:59.298Z,19.80
2019-05-21T12:51:31.737Z,19.80
2019-05-21T12:54:04.157Z,19.80
2019-05-21T12:56:40.449Z,19.80
2019-05-21T12:59:10.661Z,19.80
2019-05-21T13:01:43.286Z,19.80
2019-05-21T13:04:15.686Z,19.80
2019-05-21T13:06:48.110Z,19.80
2019-05-21T13:09:32.258Z,19.80
2019-05-21T13:11:54.663Z,19.80
2019-05-21T13:14:27.127Z,19.80
2019-05-21T13:17:00.575Z,19.80
2019-05-21T13:19:33.034Z,19.80
2019-05-21T13:22:05.520Z,19.80
2019-05-21T13:24:37.906Z,19.80
2019-05-21T13:27:10.323Z,19.80
2019-05-21T13:29:42.827Z,19.80
2019-05-21T13:32:15.333Z,19.80
2019-05-21T13:34:47.840Z,19.80
2019-05-21T13:37:20.261Z,19.80
2019-05-21T13:39:53.833Z,19.70
2019-05-21T13:42:26.258Z,19.70
2019-05-21T13:44:58.651Z,19.70
2019-05-21T13:47:31.129Z,19.70
2019-05-21T13:50:03.746Z,19.70
2019-05-21T13:52:46.475Z,19.70
2019-05-21T13:55:18.940Z,19.70
2019-05-21T13:57:51.421Z,19.70
2019-05-21T14:00:28.633Z,19.70
2019-05-21T14:03:01.326Z,19.70
2019-05-21T14:05:33.737Z,19.70
2019-05-21T14:08:06.417Z,19.70
2019-05-21T14:10:39.041Z,19.70
2019-05-21T14:13:11.573Z,19.60
2019-05-21T14:15:44.035Z,19.60
2019-05-21T14:18:16.523Z,19.60
2019-05-21T14:20:48.934Z,19.60
2019-05-21T14:23:21.484Z,19.60
2019-05-21T14:25:53.897Z,19.60
2019-05-21T14:28:26.351Z,19.70
2019-05-21T14:30:58.749Z,19.60
2019-05-21T14:33:31.221Z,19.70
2019-05-21T14:36:03.691Z,19.60
2019-05-21T14:38:36.140Z,19.60
2019-05-21T14:41:08.608Z,19.60
2019-05-21T14:43:41.039Z,19.60
2019-05-21T14:46:13.442Z,19.60
2019-05-21T14:48:45.879Z,19.60
2019-05-21T14:51:18.412Z,19.60
2019-05-21T14:53:53.706Z,19.60
2019-05-21T14:56:26.193Z,19.60
2019-05-21T14:58:58.656Z,19.60
2019-05-21T15:01:31.042Z,19.60
2019-05-21T15:04:03.625Z,19.60
2019-05-21T15:06:36.143Z,19.60
2019-05-21T15:09:08.724Z,19.60
2019-05-21T15:11:41.396Z,19.50
2019-05-21T15:14:13.810Z,19.50
2019-05-21T15:16:46.229Z,19.50
2019-05-21T15:19:18.732Z,19.50
2019-05-21T15:21:53.827Z,19.50
2019-05-21T15:24:26.251Z,19.60
2019-05-21T15:26:58.665Z,19.50
2019-05-21T15:29:31.085Z,19.50
2019-05-21T15:32:03.498Z,19.50
2019-05-21T15:34:35.984Z,19.50
2019-05-21T15:37:08.397Z,19.50
2019-05-21T15:39:42.474Z,19.50
2019-05-21T15:42:14.871Z,19.50
2019-05-21T15:44:47.369Z,19.50
2019-05-21T15:47:19.877Z,19.50
2019-05-21T15:49:52.364Z,19.50
2019-05-21T15:52:24.768Z,19.50
2019-05-21T15:54:57.194Z,19.50
2019-05-21T15:57:29.612Z,19.50
2019-05-21T16:00:02.039Z,19.50
2019-05-21T16:02:34.814Z,19.50
2019-05-21T16:05:07.288Z,19.50
2019-05-21T16:07:39.696Z,19.40
2019-05-21T16:10:12.127Z,19.40
2019-05-21T16:12:44.580Z,19.40
2019-05-21T16:15:17.049Z,19.50
2019-05-21T16:17:49.456Z,19.50
2019-05-21T16:20:21.879Z,19.50
2019-05-21T16:22:54.299Z,19.50
2019-05-21T16:25:26.882Z,19.50
2019-05-21T16:27:59.298Z,19.40
2019-05-21T16:30:31.729Z,19.40
2019-05-21T16:33:04.129Z,19.40
2019-05-21T16:35:36.553Z,19.40
2019-05-21T16:38:09.028Z,19.50
2019-05-21T16:40:41.474Z,19.40
2019-05-21T16:43:13.868Z,19.50
2019-05-21T16:45:46.295Z,19.50
2019-05-21T16:48:18.688Z,19.50
2019-05-21T16:50:51.103Z,19.50
2019-05-21T16:53:23.506Z,19.50
2019-05-21T16:55:56.257Z,19.50
2019-05-21T16:58:28.662Z,19.50
2019-05-21T17:01:01.617Z,19.50
2019-05-21T17:03:36.533Z,19.50
2019-05-21T17:06:08.759Z,19.50
2019-05-21T17:08:41.266Z,19.50
2019-05-21T17:11:13.784Z,19.50
2019-05-21T17:13:48.310Z,19.50
2019-05-21T17:16:20.749Z,19.50
2019-05-21T17:18:53.283Z,19.50
2019-05-21T17:21:26.148Z,19.50
2019-05-21T17:23:58.914Z,19.50
2019-05-21T17:26:32.058Z,19.50
2019-05-21T17:29:04.513Z,19.50
2019-05-21T17:31:37.968Z,19.50
2019-05-21T17:34:10.374Z,19.50
2019-05-21T17:36:44.357Z,19.50
2019-05-21T17:39:17.796Z,19.40
2019-05-21T17:41:50.474Z,19.50
2019-05-21T17:44:24.966Z,19.40
2019-05-21T17:46:57.180Z,19.50
2019-05-21T17:49:29.622Z,19.40
2019-05-21T17:52:02.134Z,19.40
2019-05-21T17:54:35.158Z,19.40
2019-05-21T17:57:08.088Z,19.40
2019-05-21T17:59:41.316Z,19.40
2019-05-21T18:02:15.659Z,19.40
2019-05-21T18:04:50.607Z,19.40
2019-05-21T18:07:23.926Z,19.40
2019-05-21T18:09:56.527Z,19.40
2019-05-21T18:12:31.955Z,19.40
2019-05-21T18:15:03.350Z,19.40
2019-05-21T18:17:38.445Z,19.40
2019-05-21T18:20:12.724Z,19.40
2019-05-21T18:22:47.988Z,19.40
2019-05-21T18:25:20.431Z,19.40
2019-05-21T18:27:52.895Z,19.40
2019-05-21T18:30:25.989Z,19.40
2019-05-21T18:32:58.827Z,19.40
2019-05-21T18:35:31.526Z,19.40
2019-05-21T18:38:04.111Z,19.40
2019-05-21T18:40:36.785Z,19.40
2019-05-21T18:43:09.342Z,19.40
2019-05-21T18:45:41.812Z,19.30
2019-05-21T18:48:14.283Z,19.40
2019-05-21T18:50:46.766Z,19.30
2019-05-21T18:53:19.369Z,19.30
2019-05-21T18:55:51.816Z,19.30
2019-05-21T18:58:24.259Z,19.30
2019-05-21T19:00:56.775Z,19.30
2019-05-21T19:03:29.208Z,19.40
2019-05-21T19:06:01.690Z,19.40
2019-05-21T19:08:34.192Z,19.40
2019-05-21T19:11:06.745Z,19.30
2019-05-21T19:13:39.172Z,19.30
2019-05-21T19:16:11.622Z,19.30
2019-05-21T19:18:45.197Z,19.30
2019-05-21T19:21:18.732Z,19.30
2019-05-21T19:23:51.364Z,19.30
2019-05-21T19:26:23.804Z,19.30
2019-05-21T19:28:56.233Z,19.30
2019-05-21T19:31:28.726Z,19.30
2019-05-21T19:34:01.170Z,19.30
2019-05-21T19:36:33.585Z,19.30
2019-05-21T19:39:07.683Z,19.30
2019-05-21T19:41:40.162Z,19.30
2019-05-21T19:44:12.568Z,19.30
2019-05-21T19:46:45.015Z,19.30
2019-05-21T19:49:17.692Z,19.30
2019-05-21T19:51:50.119Z,19.30
2019-05-21T19:54:22.655Z,19.30
2019-05-21T19:56:55.257Z,19.40
2019-05-21T19:59:27.895Z,19.30
2019-05-21T20:02:00.325Z,19.30
2019-05-21T20:04:32.849Z,19.30
2019-05-21T20:07:07.679Z,19.30
2019-05-21T20:09:41.737Z,19.30
2019-05-21T20:12:14.655Z,19.30
2019-05-21T20:14:47.652Z,19.30
2019-05-21T20:17:20.578Z,19.30
2019-05-21T20:19:53.189Z,19.30
2019-05-21T20:22:26.405Z,19.30
2019-05-21T20:24:59.106Z,19.30
2019-05-21T20:27:31.529Z,19.30
2019-05-21T20:30:12.722Z,19.30
2019-05-21T20:32:41.037Z,19.30
2019-05-21T20:35:16.846Z,19.30
2019-05-21T20:37:49.983Z,19.30
2019-05-21T20:40:23.348Z,19.30
2019-05-21T20:42:56.072Z,19.30
2019-05-21T20:45:28.667Z,19.30
2019-05-21T20:48:01.096Z,19.30
2019-05-21T20:50:34.097Z,19.30
2019-05-21T20:53:06.538Z,19.30
2019-05-21T20:55:39.127Z,19.30
2019-05-21T20:58:11.574Z,19.30
2019-05-21T21:00:53.602Z,19.30
2019-05-21T21:03:26.047Z,19.30
2019-05-21T21:05:58.751Z,19.30
2019-05-21T21:08:32.998Z,19.30
2019-05-21T21:11:07.176Z,19.30
2019-05-21T21:13:40.677Z,19.30
2019-05-21T21:16:13.530Z,19.20
2019-05-21T21:18:46.185Z,19.20
2019-05-21T21:21:18.602Z,19.30
2019-05-21T21:23:55.939Z,19.20
2019-05-21T21:26:26.974Z,19.20
2019-05-21T21:29:00.584Z,19.20
2019-05-21T21:31:33.225Z,19.30
2019-05-21T21:34:06.134Z,19.20
2019-05-21T21:36:38.646Z,19.20
2019-05-21T21:39:11.975Z,19.30
2019-05-21T21:41:45.052Z,19.20
2019-05-21T21:44:33.122Z,19.30
2019-05-21T21:46:54.963Z,19.30
2019-05-21T21:49:28.979Z,19.30
2019-05-21T21:52:01.564Z,19.20
2019-05-21T21:54:34.466Z,19.20
2019-05-21T21:57:07.045Z,19.20
2019-05-21T21:59:39.474Z,19.20
2019-05-21T22:02:26.818Z,19.20
2019-05-21T22:05:00.134Z,19.20
2019-05-21T22:07:32.953Z,19.20
2019-05-21T22:10:06.959Z,19.20
2019-05-21T22:12:39.639Z,19.10
2019-05-21T22:15:12.857Z,19.10
2019-05-21T22:17:45.354Z,19.10
2019-05-21T22:20:18.697Z,19.10
2019-05-21T22:22:51.110Z,19.10
2019-05-21T22:25:23.642Z,19.10
2019-05-21T22:27:56.178Z,19.10
2019-05-21T22:30:29.693Z,19.10
2019-05-21T22:33:02.188Z,19.10
2019-05-21T22:35:34.625Z,19.20
2019-05-21T22:38:07.030Z,19.10
2019-05-21T22:40:39.471Z,19.10
2019-05-21T22:43:12.958Z,19.20
2019-05-21T22:45:45.484Z,19.20
2019-05-21T22:48:17.888Z,19.20
2019-05-21T22:50:50.322Z,19.20
2019-05-21T22:53:22.786Z,19.20
2019-05-21T22:55:55.253Z,19.20
2019-05-21T22:58:27.663Z,19.20
2019-05-21T23:01:01.802Z,19.20
2019-05-21T23:03:34.211Z,19.20
2019-05-21T23:06:06.681Z,19.20
2019-05-21T23:08:39.180Z,19.20
2019-05-21T23:11:11.861Z,19.20
2019-05-21T23:13:44.277Z,19.20
2019-05-21T23:16:17.383Z,19.20
2019-05-21T23:19:08.781Z,19.20
2019-05-21T23:21:44.074Z,19.20
2019-05-21T23:24:21.349Z,19.10
2019-05-21T23:26:54.543Z,19.10
2019-05-21T23:29:27.231Z,19.10
2019-05-21T23:31:59.674Z,19.10
2019-05-21T23:34:32.691Z,19.10
2019-05-21T23:37:07.270Z,19.10
2019-05-21T23:39:40.505Z,19.10
2019-05-21T23:42:27.182Z,19.00
2019-05-21T23:44:48.013Z,19.00
2019-05-21T23:47:20.628Z,19.00
2019-05-21T23:49:53.178Z,19.00
2019-05-21T23:52:26.542Z,19.00
2019-05-21T23:54:59.924Z,19.00
2019-05-21T23:57:33.476Z,19.00
